CheckWX is a tool to help pilots better visualize weather data.  It is not intended as a substitute for an official pre-flight weather briefing.

09:34:54 UTC

KSHD METAR
Shenandoah Valley Regional Airport
Staunton/Waynesboro/Harrisonburg, Virginia, USA
Current

20 mins ago

KSHD 180915Z AUTO 00000KT 10SM CLR 04/00 A2997 RMK AO2 T00411002
Observed
Oct-18 @ 09:15 UTC
Visibility
10 SM
Flight Rules
VFR
Cloud Levels
  • Clear skies
Temperature
C / 39°F
Dewpoint
-0°C / 32°F
Humidity
75%
Altimeter
29.97" Hg
Pressure
1014.92 hPa
Previous

40 mins ago

KSHD 180855Z AUTO 00000KT 10SM CLR 07/00 A2996 RMK AO2 T00670000
Observed
Oct-18 @ 08:55 UTC
Visibility
10 SM
Flight Rules
VFR
Cloud Levels
  • Clear skies
Temperature
C / 45°F
Dewpoint
C / 32°F
Humidity
61%
Altimeter
29.96" Hg
Pressure
1014.52 hPa
Previous

60 mins ago

KSHD 180835Z AUTO 00000KT 10SM CLR 06/00 A2995 RMK AO2 T00601001
Observed
Oct-18 @ 08:35 UTC
Visibility
10 SM
Flight Rules
VFR
Cloud Levels
  • Clear skies
Temperature
C / 43°F
Dewpoint
-0°C / 32°F
Humidity
66%
Altimeter
29.95" Hg
Pressure
1014.22 hPa